• Join FlightAware (Why Join?)
  • Login
  • US Flag 
03:06PM EDT


 

Airport Tracker/Info


-or-


 

Live Flight TrackerFlight Track Log ✈ JZA381 ✈ 30-Apr-2012 ✈ CYMM - CYEG

Flight Track Log - Related Links

Times and Time Zones

All times are in EDT time to prevent confusion due to time zone crossing. See the JZA381 flight status page for this flight to view local times or setup timezone preferences in your user account.

Time Position Orientation Groundspeed Altitude Reporting Facility
EDT Latitude Longitude Course Direction KTS MPH feet Rate Location/Type
08:33AM 56.6333 -111.3167 270° West 150 173 2,700  Level Edmonton Center
08:34AM 56.6333 -111.4167 190° South 180 207 3,700 1,200 Climbing Edmonton Center
08:35AM 56.5833 -111.4333 209° Southwest 180 207 5,100 1,260 Climbing Edmonton Center
08:36AM 56.5333 -111.4833 209° Southwest 190 219 6,300 1,200 Climbing Edmonton Center
08:37AM 56.5000 -111.5167 188° South 190 219 7,500 1,260 Climbing Edmonton Center
08:38AM 56.4333 -111.5333 209° Southwest 190 219 8,900 1,260 Climbing Edmonton Center
08:39AM 56.3833 -111.5833 190° South 190 219 10,100 1,200 Climbing Edmonton Center
08:40AM 56.3333 -111.6000 209° Southwest 190 219 11,300 1,200 Climbing Edmonton Center
08:41AM 56.2833 -111.6500 200° South 200 230 12,500 1,080 Climbing Edmonton Center
08:42AM 56.2333 -111.6833 203° Southwest 200 230 13,500 960 Climbing Edmonton Center
08:43AM 56.1667 -111.7333 191° South 200 230 14,500 960 Climbing Edmonton Center
08:44AM 56.1167 -111.7500 209° Southwest 210 242 15,500 900 Climbing Edmonton Center
08:45AM 56.0667 -111.8000 203° Southwest 210 242 16,400 960 Climbing Edmonton Center
08:46AM 56.0000 -111.8500 191° South 210 242 17,500 1,020 Climbing Edmonton Center
08:47AM 55.9500 -111.8667 209° Southwest 210 242 18,500 900 Climbing Edmonton Center
08:48AM 55.9000 -111.9167 196° South 210 242 19,400 780 Climbing Edmonton Center
08:49AM 55.8333 -111.9500 209° Southwest 220 253 20,100 660 Climbing Edmonton Center
08:50AM 55.7833 -112.0000 196° South 220 253 20,800 660 Climbing Edmonton Center
08:51AM 55.7167 -112.0333 201° Southwest 220 253 21,500 600 Climbing Edmonton Center
08:52AM 55.6667 -112.0667 199° South 220 253 22,000 240 Climbing Edmonton Center
08:53AM 55.5833 -112.1167 210° Southwest 240 276 22,000  Level Edmonton Center
08:54AM 55.5333 -112.1667 196° South 250 288 22,000  Level Edmonton Center
08:55AM 55.4667 -112.2000 203° Southwest 270 311 22,000  Level Edmonton Center
08:56AM 55.4000 -112.2500 196° South 270 311 22,000  Level Edmonton Center
08:57AM 55.3000 -112.3000 203° Southwest 270 311 22,000  Level Edmonton Center
08:58AM 55.2333 -112.3500 201° Southwest 270 311 22,000  Level Edmonton Center
08:59AM 55.1833 -112.3833 199° South 270 311 22,000  Level Edmonton Center
09:00AM 55.1000 -112.4333 203° Southwest 270 311 22,000  Level Edmonton Center
09:01AM 55.0333 -112.4833 205° Southwest 270 311 22,000  Level Edmonton Center
09:02AM 54.9500 -112.5500 188° South 270 311 22,000  Level Edmonton Center
09:03AM 54.8833 -112.5667 224° Southwest 270 311 22,000  Level Edmonton Center
09:04AM 54.8333 -112.6500 199° South 270 311 22,000  Level Edmonton Center
09:05AM 54.7500 -112.7000 196° South 270 311 22,000  Level Edmonton Center
09:06AM 54.6833 -112.7333 216° Southwest 270 311 22,000  Level Edmonton Center
09:07AM 54.6167 -112.8167 193° South 270 311 22,000  Level Edmonton Center
09:08AM 54.5333 -112.8500 204° Southwest 270 311 22,000  Level Edmonton Center
09:09AM 54.4667 -112.9000 210° Southwest 270 311 22,000  Level Edmonton Center
09:10AM 54.4000 -112.9667 204° Southwest 270 311 22,000  Level Edmonton Center
09:11AM 54.3333 -113.0167 204° Southwest 270 311 22,000  Level Edmonton Center
09:12AM 54.2667 -113.0667 210° Southwest 270 311 22,000 -300 Level Edmonton Center
09:13AM 54.2000 -113.1333 199° South 270 311 21,400 -1,080 Descending Edmonton Center
09:14AM 54.1167 -113.1833 205° Southwest 290 334 19,900 -1,500 Descending Edmonton Center
09:15AM 54.0333 -113.2500 204° Southwest 290 334 18,500 -1,680 Descending Edmonton Center
09:16AM 53.9667 -113.3000 218° Southwest 280 322 16,600 -1,740 Descending Edmonton Center
09:17AM 53.9167 -113.3667 205° Southwest 280 322 15,100 -1,500 Descending Edmonton Center
09:18AM 53.8333 -113.4333 204° Southwest 280 322 13,700 -1,500 Descending Edmonton Center
09:19AM 53.7667 -113.4833 211° Southwest 270 311 12,100 -1,500 Descending Edmonton Center
09:20AM 53.7167 -113.5333 211° Southwest 250 288 10,700 -1,500 Descending Edmonton Center
09:21AM 53.6500 -113.6000 211° Southwest 240 276 9,100 -1,500 Descending Edmonton Center
09:22AM 53.6000 -113.6500 197° South 240 276 7,700 -1,500 Descending Edmonton Center
09:23AM 53.5333 -113.6833 204° Southwest 230 265 6,100 -1,440 Descending Edmonton Center
09:24AM 53.4667 -113.7333 169° South 220 253 4,900 -900 Descending Edmonton Center
09:25AM 53.4167 -113.7167 180° South 200 230 4,300 -600 Descending Edmonton Center
09:26AM 53.3667 -113.7167 169° South 190 219 3,700 -480 Descending Edmonton Center
09:27AM 53.3167 -113.7000 130° Southeast 150 173 3,400 -360 Descending Edmonton Center
09:28AM 53.3000 -113.6667 130° Southeast 120 138 3,000 -540 Descending Edmonton Center
09:29AM 53.2833 -113.6333 130° Southeast 120 138 2,400 -360 Descending Edmonton Center
09:30AM 53.2667 -113.6000 130° Southeast 110 127 2,300 -120 Descending Edmonton Center